createdAt,value
2018-02-19T00:01:20.494Z,43.10
2018-02-19T00:03:46.849Z,42.97
2018-02-19T00:06:13.422Z,41.20
2018-02-19T00:08:39.762Z,42.77
2018-02-19T00:11:06.137Z,43.03
2018-02-19T00:13:32.564Z,42.50
2018-02-19T00:15:58.939Z,40.13
2018-02-19T00:18:25.293Z,43.03
2018-02-19T00:20:51.691Z,42.63
2018-02-19T00:23:18.124Z,44.83
2018-02-19T00:25:44.477Z,45.90
2018-02-19T00:28:10.845Z,45.90
2018-02-19T00:30:37.245Z,45.73
2018-02-19T00:33:03.605Z,47.70
2018-02-19T00:35:29.969Z,47.97
2018-02-19T00:37:56.337Z,49.77
2018-02-19T00:40:22.718Z,51.73
2018-02-19T00:42:49.086Z,51.17
2018-02-19T00:45:15.441Z,49.33
2018-02-19T00:47:41.829Z,47.20
2018-02-19T00:50:08.174Z,47.30
2018-02-19T00:52:34.543Z,47.00
2018-02-19T00:55:00.889Z,43.97
2018-02-19T00:57:27.281Z,47.33
2018-02-19T00:59:53.636Z,44.73
2018-02-19T01:02:19.989Z,43.90
2018-02-19T01:04:46.401Z,42.03
2018-02-19T01:07:12.795Z,41.43
2018-02-19T01:09:39.138Z,39.90
2018-02-19T01:12:05.537Z,40.37
2018-02-19T01:14:31.935Z,41.23
2018-02-19T01:16:58.302Z,41.00
2018-02-19T01:19:24.714Z,38.47
2018-02-19T01:21:51.126Z,39.07
2018-02-19T01:24:17.476Z,40.53
2018-02-19T01:26:43.853Z,38.40
2018-02-19T01:29:10.222Z,38.50
2018-02-19T01:31:36.742Z,40.07
2018-02-19T01:34:03.157Z,41.23
2018-02-19T01:36:29.507Z,42.23
2018-02-19T01:38:55.874Z,40.87
2018-02-19T01:41:22.281Z,41.57
2018-02-19T01:43:48.634Z,40.50
2018-02-19T01:46:14.990Z,38.40
2018-02-19T01:48:41.409Z,38.53
2018-02-19T01:51:07.776Z,40.60
2018-02-19T01:53:34.142Z,40.73
2018-02-19T01:56:00.554Z,41.90
2018-02-19T01:58:26.931Z,40.90
2018-02-19T02:00:53.285Z,44.37
2018-02-19T02:03:19.703Z,41.37
2018-02-19T02:05:46.053Z,42.87
2018-02-19T02:08:12.469Z,43.67
2018-02-19T02:10:38.865Z,41.40
2018-02-19T02:13:05.241Z,40.87
2018-02-19T02:15:31.673Z,43.43
2018-02-19T02:17:58.026Z,42.70
2018-02-19T02:20:24.398Z,43.40
2018-02-19T02:22:50.830Z,43.37
2018-02-19T02:25:17.179Z,46.10
2018-02-19T02:27:43.544Z,45.10
2018-02-19T02:30:09.946Z,45.73
2018-02-19T02:32:36.298Z,44.30
2018-02-19T02:35:02.685Z,45.60
2018-02-19T02:37:29.128Z,44.30
2018-02-19T02:39:55.493Z,43.83
2018-02-19T02:42:21.896Z,43.53
2018-02-19T02:44:48.296Z,44.23
2018-02-19T02:47:14.654Z,44.83
2018-02-19T02:49:41.001Z,44.17
2018-02-19T02:52:07.398Z,44.03
2018-02-19T02:54:33.738Z,44.53
2018-02-19T02:57:00.097Z,46.63
2018-02-19T02:59:26.495Z,45.40
2018-02-19T03:01:52.838Z,44.47
2018-02-19T03:04:19.261Z,46.97
2018-02-19T03:06:45.659Z,45.10
2018-02-19T03:09:12.018Z,47.03
2018-02-19T03:11:38.361Z,44.97
2018-02-19T03:14:04.760Z,46.23
2018-02-19T03:16:31.200Z,44.93
2018-02-19T03:18:57.585Z,46.50
2018-02-19T03:21:24.045Z,45.67
2018-02-19T03:23:50.402Z,44.83
2018-02-19T03:26:16.757Z,45.77
2018-02-19T03:28:43.122Z,43.40
2018-02-19T03:31:09.551Z,45.13
2018-02-19T03:33:36.039Z,46.90
2018-02-19T03:36:02.390Z,46.53
2018-02-19T03:38:28.786Z,48.77
2018-02-19T03:40:55.136Z,45.83
2018-02-19T03:43:21.494Z,48.13
2018-02-19T03:45:47.886Z,46.00
2018-02-19T03:48:14.446Z,46.33
2018-02-19T03:50:40.793Z,45.80
2018-02-19T03:53:07.192Z,45.00
2018-02-19T03:55:33.574Z,45.90
2018-02-19T03:58:00.054Z,45.17
2018-02-19T04:00:26.826Z,45.47
2018-02-19T04:02:53.165Z,46.57
2018-02-19T04:05:19.844Z,44.73
2018-02-19T04:07:46.233Z,46.10
2018-02-19T04:10:12.813Z,46.13
2018-02-19T04:12:39.177Z,47.53
2018-02-19T04:15:05.646Z,46.47
2018-02-19T04:17:32.006Z,45.17
2018-02-19T04:19:58.360Z,48.40
2018-02-19T04:22:24.776Z,45.80
2018-02-19T04:24:51.133Z,46.70
2018-02-19T04:27:17.509Z,44.13
2018-02-19T04:29:44.106Z,44.67
2018-02-19T04:32:10.465Z,43.03
2018-02-19T04:34:36.890Z,35.47
2018-02-19T04:37:03.454Z,34.67
2018-02-19T04:39:29.985Z,33.90
2018-02-19T04:41:56.351Z,33.07
2018-02-19T04:47:23.146Z,28.57
2018-02-19T04:49:49.494Z,29.63
2018-02-19T04:52:15.921Z,28.43
2018-02-19T04:54:42.277Z,28.37
2018-02-19T04:57:08.677Z,28.50
2018-02-19T04:59:35.159Z,28.43
2018-02-19T05:02:01.530Z,30.47
2018-02-19T05:04:27.938Z,31.30
2018-02-19T05:06:54.451Z,29.00
2018-02-19T05:09:20.818Z,26.10
2018-02-19T05:11:47.205Z,25.67
2018-02-19T05:14:13.624Z,26.97
2018-02-19T05:16:40.001Z,28.90
2018-02-19T05:19:06.349Z,30.27
2018-02-19T05:21:32.740Z,35.00
2018-02-19T05:23:59.094Z,34.23
2018-02-19T05:26:25.477Z,31.73
2018-02-19T05:28:51.909Z,31.47
2018-02-19T05:31:18.254Z,29.97
2018-02-19T05:33:44.618Z,29.07
2018-02-19T05:36:11.017Z,30.00
2018-02-19T05:38:37.375Z,29.17
2018-02-19T05:41:03.773Z,30.13
2018-02-19T05:43:30.281Z,32.60
2018-02-19T05:45:56.625Z,34.63
2018-02-19T05:48:22.985Z,35.67
2018-02-19T05:50:49.409Z,34.57
2018-02-19T05:53:15.902Z,31.00
2018-02-19T05:55:42.253Z,32.50
2018-02-19T05:58:08.677Z,32.00
2018-02-19T06:00:35.154Z,33.13
2018-02-19T06:03:01.545Z,27.90
2018-02-19T06:05:28.052Z,31.60
2018-02-19T06:07:54.473Z,32.80
2018-02-19T06:10:20.830Z,32.53
2018-02-19T06:12:47.241Z,34.03
2018-02-19T06:15:13.962Z,32.63
2018-02-19T06:17:40.336Z,34.83
2018-02-19T06:20:06.745Z,34.90
2018-02-19T06:22:33.177Z,34.63
2018-02-19T06:24:59.862Z,36.53
2018-02-19T06:27:26.289Z,38.90
2018-02-19T06:29:52.709Z,38.13
2018-02-19T06:32:19.201Z,39.43
2018-02-19T06:34:45.625Z,39.30
2018-02-19T06:37:12.337Z,41.07
2018-02-19T06:39:38.832Z,41.97
2018-02-19T06:42:05.257Z,40.77
2018-02-19T06:44:31.662Z,43.80
2018-02-19T06:46:58.025Z,42.57
2018-02-19T06:49:24.418Z,50.47
2018-02-19T06:51:50.771Z,53.47
2018-02-19T06:54:17.134Z,51.67
2018-02-19T06:56:43.501Z,53.63
2018-02-19T06:59:09.931Z,60.90
2018-02-19T07:01:36.374Z,65.67
2018-02-19T07:04:02.777Z,60.83
2018-02-19T07:06:29.132Z,60.50
2018-02-19T07:08:55.587Z,60.20
2018-02-19T07:11:22.053Z,57.10
2018-02-19T07:13:48.407Z,52.13
2018-02-19T07:16:14.971Z,49.30
2018-02-19T07:18:41.477Z,45.47
2018-02-19T07:21:07.850Z,40.23
2018-02-19T07:23:34.501Z,40.57
2018-02-19T07:26:01.004Z,42.13
2018-02-19T07:28:27.469Z,48.93
2018-02-19T07:30:53.880Z,48.80
2018-02-19T07:33:20.254Z,48.50
2018-02-19T07:35:46.755Z,50.60
2018-02-19T07:38:13.194Z,48.93
2018-02-19T07:40:39.534Z,46.50
2018-02-19T07:43:05.917Z,48.37
2018-02-19T07:45:32.446Z,52.83
2018-02-19T07:47:58.845Z,44.93
2018-02-19T07:50:25.237Z,47.47
2018-02-19T07:52:51.909Z,52.20
2018-02-19T07:55:18.589Z,44.83
2018-02-19T07:57:44.935Z,37.23
2018-02-19T08:00:11.558Z,29.83
2018-02-19T08:02:37.930Z,29.27
2018-02-19T08:05:04.462Z,30.20
2018-02-19T08:07:30.857Z,35.17
2018-02-19T08:09:57.369Z,32.00
2018-02-19T08:12:23.743Z,35.33
2018-02-19T08:14:50.134Z,41.03
2018-02-19T08:17:16.496Z,42.03
2018-02-19T08:19:42.964Z,56.33
2018-02-19T08:22:09.560Z,63.40
2018-02-19T08:24:35.908Z,55.57
2018-02-19T08:27:02.266Z,39.13
2018-02-19T08:29:28.634Z,34.57
2018-02-19T08:31:55.206Z,33.60
2018-02-19T08:34:21.620Z,30.70
2018-02-19T08:36:48.060Z,28.43
2018-02-19T08:39:14.465Z,31.90
2018-02-19T08:41:40.797Z,37.67
2018-02-19T08:44:07.166Z,38.47
2018-02-19T08:46:33.773Z,36.57
2018-02-19T08:49:00.336Z,35.53
2018-02-19T08:51:26.763Z,32.47
2018-02-19T08:53:53.130Z,33.47
2018-02-19T08:56:19.562Z,38.17
2018-02-19T08:58:45.896Z,44.43
2018-02-19T09:01:12.252Z,56.37
2018-02-19T09:03:38.880Z,55.07
2018-02-19T09:06:05.237Z,49.33
2018-02-19T09:08:31.622Z,38.40
2018-02-19T09:10:58.096Z,39.33
2018-02-19T09:13:24.614Z,33.87
2018-02-19T09:15:50.969Z,37.97
2018-02-19T09:18:17.398Z,39.57
2018-02-19T09:20:43.789Z,37.13
2018-02-19T09:23:10.135Z,40.77
2018-02-19T09:25:36.592Z,37.80
2018-02-19T09:28:02.934Z,38.90
2018-02-19T09:30:29.278Z,38.63
2018-02-19T09:32:55.663Z,41.80
2018-02-19T09:35:22.050Z,34.40
2018-02-19T09:37:48.389Z,34.77
2018-02-19T09:40:14.810Z,34.30
2018-02-19T09:42:41.166Z,20.30
2018-02-19T09:45:07.525Z,24.03
2018-02-19T09:47:33.888Z,19.33
2018-02-19T09:50:00.237Z,16.80
2018-02-19T09:52:26.589Z,18.40
2018-02-19T09:54:52.955Z,17.57
2018-02-19T09:57:19.309Z,21.90
2018-02-19T09:59:45.742Z,16.13
2018-02-19T10:02:12.154Z,21.17
2018-02-19T10:04:38.497Z,20.97
2018-02-19T10:07:04.890Z,20.63
2018-02-19T10:09:31.274Z,21.30
2018-02-19T10:11:57.603Z,20.73
2018-02-19T10:14:24.043Z,20.73
2018-02-19T10:16:50.388Z,18.70
2018-02-19T10:19:16.773Z,19.83
2018-02-19T10:21:43.210Z,20.60
2018-02-19T10:24:09.659Z,17.20
2018-02-19T10:26:35.997Z,16.50
2018-02-19T10:29:02.523Z,16.40
2018-02-19T10:31:28.894Z,17.27
2018-02-19T10:33:55.245Z,20.27
2018-02-19T10:36:21.733Z,17.67
2018-02-19T10:38:48.137Z,17.97
2018-02-19T10:41:14.671Z,18.43
2018-02-19T10:43:41.056Z,16.30
2018-02-19T10:46:07.492Z,17.17
2018-02-19T10:48:33.896Z,16.97
2018-02-19T10:51:00.285Z,16.90
2018-02-19T10:53:26.662Z,16.13
2018-02-19T10:55:53.293Z,16.10
2018-02-19T10:58:19.977Z,16.33
2018-02-19T11:00:46.326Z,18.10
2018-02-19T11:03:12.800Z,17.73
2018-02-19T11:05:39.177Z,16.97
2018-02-19T11:08:05.514Z,17.90
2018-02-19T11:10:31.901Z,17.53
2018-02-19T11:12:58.260Z,17.30
2018-02-19T11:15:24.661Z,21.17
2018-02-19T11:17:51.038Z,19.47
2018-02-19T11:20:17.489Z,18.13
2018-02-19T11:22:43.901Z,18.10
2018-02-19T11:25:10.730Z,19.40
2018-02-19T11:27:37.347Z,19.17
2018-02-19T11:30:03.766Z,17.00
2018-02-19T11:32:30.176Z,18.57
2018-02-19T11:34:56.710Z,17.00
2018-02-19T11:37:23.090Z,17.23
2018-02-19T11:39:49.563Z,21.33
2018-02-19T11:42:16.018Z,17.03
2018-02-19T11:44:42.381Z,17.87
2018-02-19T11:47:08.728Z,17.07
2018-02-19T11:49:35.191Z,15.23
2018-02-19T11:52:01.527Z,17.43
2018-02-19T11:54:27.879Z,15.47
2018-02-19T11:56:54.314Z,16.10
2018-02-19T11:59:20.705Z,17.83
2018-02-19T12:01:47.211Z,19.33
2018-02-19T12:04:13.630Z,21.67
2018-02-19T12:06:40.126Z,28.30
2018-02-19T12:09:06.611Z,24.03
2018-02-19T12:11:32.955Z,19.47
2018-02-19T12:13:59.324Z,27.33
2018-02-19T12:16:25.722Z,26.33
2018-02-19T12:18:52.052Z,18.53
2018-02-19T12:21:18.423Z,18.60
2018-02-19T12:23:44.855Z,17.37
2018-02-19T12:26:11.250Z,17.47
2018-02-19T12:28:37.644Z,19.53
2018-02-19T12:31:04.097Z,16.17
2018-02-19T12:33:30.461Z,17.47
2018-02-19T12:35:56.920Z,18.40
2018-02-19T12:38:23.428Z,17.93
2018-02-19T12:40:49.805Z,17.63
2018-02-19T12:43:16.163Z,17.20
2018-02-19T12:45:42.636Z,15.00
2018-02-19T12:48:09.416Z,15.27
2018-02-19T12:50:35.865Z,15.90
2018-02-19T12:53:02.712Z,17.67
2018-02-19T12:55:29.354Z,19.40
2018-02-19T12:57:55.725Z,19.17
2018-02-19T13:00:22.114Z,25.73
2018-02-19T13:02:48.485Z,22.80
2018-02-19T13:05:14.862Z,22.53
2018-02-19T13:07:41.263Z,18.23
2018-02-19T13:10:07.693Z,18.33
2018-02-19T13:12:34.050Z,18.53
2018-02-19T13:15:00.491Z,18.47
2018-02-19T13:17:26.856Z,19.37
2018-02-19T13:19:53.203Z,20.57
2018-02-19T13:22:19.582Z,17.97
2018-02-19T13:24:45.934Z,19.07
2018-02-19T13:27:12.286Z,18.40
2018-02-19T13:29:38.745Z,19.87
2018-02-19T13:32:05.237Z,17.30
2018-02-19T13:34:31.797Z,17.27
2018-02-19T13:36:58.212Z,17.73
2018-02-19T13:39:24.641Z,19.43
2018-02-19T13:41:51.090Z,21.43
2018-02-19T13:44:17.998Z,30.07
2018-02-19T13:46:46.334Z,25.03
2018-02-19T13:49:13.674Z,26.17
2018-02-19T13:51:40.313Z,25.27
2018-02-19T13:54:06.719Z,21.80
2018-02-19T13:56:33.102Z,22.53
2018-02-19T13:58:59.514Z,20.43
2018-02-19T14:01:25.895Z,20.77
2018-02-19T14:03:52.289Z,19.70
2018-02-19T14:06:18.648Z,17.97
2018-02-19T14:08:45.010Z,17.60
2018-02-19T14:11:11.438Z,19.40
2018-02-19T14:13:37.784Z,21.43
2018-02-19T14:16:04.127Z,20.13
2018-02-19T14:18:30.574Z,19.33
2018-02-19T14:20:56.929Z,16.37
2018-02-19T14:23:23.278Z,15.40
2018-02-19T14:25:49.690Z,14.83
2018-02-19T14:28:16.092Z,18.50
2018-02-19T14:30:42.512Z,26.90
2018-02-19T14:33:08.942Z,25.60
2018-02-19T14:35:35.318Z,16.77
2018-02-19T14:38:01.666Z,14.10
2018-02-19T14:40:28.162Z,14.53
2018-02-19T14:42:54.527Z,12.67
2018-02-19T14:45:20.905Z,11.90
2018-02-19T14:47:47.330Z,13.03
2018-02-19T14:50:13.744Z,10.93
2018-02-19T14:52:40.153Z,11.53
2018-02-19T14:55:06.709Z,15.60
2018-02-19T14:57:33.062Z,17.17
2018-02-19T14:59:59.418Z,15.93
2018-02-19T15:02:25.870Z,9.00
2018-02-19T15:04:52.250Z,8.57
2018-02-19T15:07:18.638Z,9.57
2018-02-19T15:09:45.102Z,9.83
2018-02-19T15:12:11.522Z,9.80
2018-02-19T15:14:37.866Z,10.97
2018-02-19T15:17:04.273Z,10.97
2018-02-19T15:19:30.663Z,12.00
2018-02-19T15:21:57.003Z,13.10
2018-02-19T15:24:23.426Z,13.07
2018-02-19T15:26:49.765Z,12.50
2018-02-19T15:29:16.104Z,13.70
2018-02-19T15:31:42.521Z,15.87
2018-02-19T15:34:08.893Z,18.80
2018-02-19T15:36:35.230Z,14.00
2018-02-19T15:39:01.617Z,16.37
2018-02-19T15:41:27.992Z,17.57
2018-02-19T15:43:54.327Z,18.67
2018-02-19T15:46:20.729Z,18.23
2018-02-19T15:48:47.082Z,18.93
2018-02-19T15:51:13.425Z,21.33
2018-02-19T15:53:39.765Z,16.13
2018-02-19T15:56:06.113Z,14.97
2018-02-19T15:58:32.520Z,12.00
2018-02-19T16:00:58.950Z,15.53
2018-02-19T16:03:25.326Z,17.97
2018-02-19T16:05:51.674Z,16.63
2018-02-19T16:08:18.040Z,17.43
2018-02-19T16:10:44.394Z,16.77
2018-02-19T16:13:10.722Z,16.13
2018-02-19T16:15:37.181Z,20.30
2018-02-19T16:18:03.682Z,22.23
2018-02-19T16:20:30.082Z,23.27
2018-02-19T16:22:56.453Z,26.10
2018-02-19T16:25:22.918Z,30.53
2018-02-19T16:27:49.257Z,36.70
2018-02-19T16:30:15.704Z,42.07
2018-02-19T16:32:42.158Z,43.63
2018-02-19T16:35:08.566Z,47.90
2018-02-19T16:37:34.904Z,48.60
2018-02-19T16:40:01.594Z,47.63
2018-02-19T16:42:27.913Z,46.17
2018-02-19T16:44:54.246Z,45.23
2018-02-19T16:47:20.736Z,47.13
2018-02-19T16:49:47.078Z,43.10
2018-02-19T16:52:13.428Z,43.50
2018-02-19T16:54:39.816Z,47.97
2018-02-19T16:57:06.190Z,42.83
2018-02-19T16:59:32.590Z,35.93
2018-02-19T17:01:58.978Z,35.30
2018-02-19T17:04:25.321Z,38.30
2018-02-19T17:06:51.694Z,41.27
2018-02-19T17:09:18.058Z,39.33
2018-02-19T17:11:44.420Z,30.57
2018-02-19T17:14:10.769Z,25.97
2018-02-19T17:16:37.164Z,22.67
2018-02-19T17:19:03.529Z,18.83
2018-02-19T17:21:29.936Z,13.83
2018-02-19T17:23:56.335Z,16.03
2018-02-19T17:26:22.709Z,14.20
2018-02-19T17:28:49.054Z,13.50
2018-02-19T17:31:15.467Z,13.60
2018-02-19T17:33:41.793Z,13.37
2018-02-19T17:36:08.193Z,12.57
2018-02-19T17:38:34.590Z,10.50
2018-02-19T17:41:00.947Z,12.37
2018-02-19T17:43:27.309Z,10.90
2018-02-19T17:45:53.709Z,10.70
2018-02-19T17:48:20.070Z,9.43
2018-02-19T17:50:46.397Z,12.97
2018-02-19T17:53:12.777Z,14.60
2018-02-19T17:55:39.123Z,13.43
2018-02-19T17:58:05.489Z,12.03
2018-02-19T18:00:31.898Z,10.80
2018-02-19T18:02:58.241Z,10.50
2018-02-19T18:05:24.585Z,7.03
2018-02-19T18:07:50.993Z,6.97
2018-02-19T18:10:17.353Z,8.60
2018-02-19T18:12:43.725Z,7.23
2018-02-19T18:15:10.185Z,9.20
2018-02-19T18:17:36.549Z,8.47
2018-02-19T18:20:02.971Z,9.43
2018-02-19T18:22:29.357Z,10.27
2018-02-19T18:24:55.750Z,7.10
2018-02-19T18:27:22.150Z,7.27
2018-02-19T18:29:48.537Z,10.27
2018-02-19T18:32:14.949Z,12.27
2018-02-19T18:34:41.313Z,10.53
2018-02-19T18:37:07.695Z,8.83
2018-02-19T18:39:34.046Z,9.40
2018-02-19T18:42:00.450Z,9.13
2018-02-19T18:44:26.908Z,8.43
2018-02-19T18:46:53.257Z,11.37
2018-02-19T18:49:19.613Z,13.77
2018-02-19T18:51:46.047Z,14.57
2018-02-19T18:54:12.388Z,13.07
2018-02-19T18:56:38.813Z,14.57
2018-02-19T18:59:05.284Z,21.30
2018-02-19T19:01:31.782Z,17.70
2018-02-19T19:03:58.165Z,17.87
2018-02-19T19:06:24.581Z,16.43
2018-02-19T19:09:03.187Z,18.40
2018-02-19T19:11:29.574Z,13.57
2018-02-19T19:13:55.938Z,12.00
2018-02-19T19:16:22.357Z,10.87
2018-02-19T19:18:48.770Z,11.73
2018-02-19T19:21:15.121Z,11.70
2018-02-19T19:23:41.497Z,11.57
2018-02-19T19:26:07.893Z,12.50
2018-02-19T19:28:34.249Z,11.87
2018-02-19T19:31:00.660Z,10.83
2018-02-19T19:33:27.061Z,9.53
2018-02-19T19:35:53.458Z,9.20
2018-02-19T19:38:19.920Z,7.47
2018-02-19T19:40:46.326Z,7.10
2018-02-19T19:43:12.677Z,6.70
2018-02-19T19:45:39.091Z,6.17
2018-02-19T19:48:05.658Z,6.77
2018-02-19T19:50:32.099Z,8.27
2018-02-19T19:52:58.431Z,7.57
2018-02-19T19:55:24.861Z,8.70
2018-02-19T19:57:51.217Z,9.03
2018-02-19T20:00:17.590Z,8.67
2018-02-19T20:02:44.034Z,8.30
2018-02-19T20:05:10.409Z,7.40
2018-02-19T20:07:36.765Z,5.43
2018-02-19T20:10:03.174Z,5.87
2018-02-19T20:12:29.517Z,5.93
2018-02-19T20:14:55.914Z,5.87
2018-02-19T20:17:22.323Z,5.73
2018-02-19T20:19:48.666Z,6.13
2018-02-19T20:22:14.994Z,5.23
2018-02-19T20:24:41.409Z,6.70
2018-02-19T20:27:07.781Z,6.07
2018-02-19T20:29:34.130Z,6.10
2018-02-19T20:32:00.542Z,7.67
2018-02-19T20:34:26.953Z,6.37
2018-02-19T20:36:53.329Z,7.40
2018-02-19T20:39:19.760Z,6.93
2018-02-19T20:41:46.518Z,7.63
2018-02-19T20:44:12.866Z,8.17
2018-02-19T20:46:39.283Z,8.97
2018-02-19T20:49:05.629Z,7.57
2018-02-19T20:51:31.997Z,8.47
2018-02-19T20:53:58.393Z,10.60
2018-02-19T20:56:24.741Z,9.47
2018-02-19T20:58:51.089Z,11.97
2018-02-19T21:01:17.576Z,10.97
2018-02-19T21:03:44.193Z,14.27
2018-02-19T21:06:10.586Z,12.83
2018-02-19T21:08:36.977Z,12.23
2018-02-19T21:11:03.361Z,10.10
2018-02-19T21:13:29.781Z,11.43
2018-02-19T21:15:56.180Z,12.60
2018-02-19T21:18:22.551Z,11.90
2018-02-19T21:20:49.003Z,11.00
2018-02-19T21:23:15.434Z,11.90
2018-02-19T21:25:41.777Z,12.03
2018-02-19T21:28:08.123Z,12.00
2018-02-19T21:30:34.555Z,13.53
2018-02-19T21:33:00.910Z,14.13
2018-02-19T21:35:27.249Z,14.50
2018-02-19T21:37:53.693Z,12.53
2018-02-19T21:40:20.034Z,14.27
2018-02-19T21:42:46.389Z,15.73
2018-02-19T21:45:12.806Z,17.17
2018-02-19T21:47:39.157Z,14.33
2018-02-19T21:50:05.705Z,14.57
2018-02-19T21:52:32.106Z,13.73
2018-02-19T21:54:58.510Z,14.47
2018-02-19T21:57:24.861Z,12.70
2018-02-19T21:59:51.252Z,12.80
2018-02-19T22:02:17.579Z,12.93
2018-02-19T22:04:43.927Z,12.27
2018-02-19T22:07:10.481Z,13.03
2018-02-19T22:09:36.829Z,12.40
2018-02-19T22:12:03.204Z,11.93
2018-02-19T22:14:29.566Z,13.00
2018-02-19T22:16:55.965Z,11.03
2018-02-19T22:19:22.294Z,12.50
2018-02-19T22:21:48.626Z,11.77
2018-02-19T22:24:14.985Z,12.33
2018-02-19T22:26:41.338Z,13.00
2018-02-19T22:29:07.697Z,12.63
2018-02-19T22:31:34.102Z,11.80
2018-02-19T22:34:00.469Z,12.77
2018-02-19T22:36:26.825Z,12.60
2018-02-19T22:38:53.267Z,13.77
2018-02-19T22:41:19.621Z,12.37
2018-02-19T22:43:45.958Z,11.80
2018-02-19T22:46:12.346Z,12.40
2018-02-19T22:48:38.673Z,13.37
2018-02-19T22:51:05.053Z,13.17
2018-02-19T22:53:31.445Z,11.90
2018-02-19T22:55:57.782Z,12.37
2018-02-19T22:58:24.124Z,13.73
2018-02-19T23:00:50.468Z,13.33
2018-02-19T23:03:16.865Z,12.87
2018-02-19T23:05:43.259Z,12.73
2018-02-19T23:08:09.599Z,14.00
2018-02-19T23:10:36.026Z,13.10
2018-02-19T23:13:02.352Z,12.87
2018-02-19T23:15:28.722Z,11.90
2018-02-19T23:17:55.098Z,12.83
2018-02-19T23:20:21.443Z,12.63
2018-02-19T23:22:47.819Z,13.07
2018-02-19T23:25:14.157Z,14.03
2018-02-19T23:27:40.485Z,14.27
2018-02-19T23:30:06.875Z,13.90
2018-02-19T23:32:33.250Z,15.77
2018-02-19T23:35:02.440Z,15.63
2018-02-19T23:37:26.008Z,14.60
2018-02-19T23:39:52.342Z,16.20
2018-02-19T23:42:18.677Z,16.13
2018-02-19T23:44:45.073Z,16.20
2018-02-19T23:47:11.413Z,15.53
2018-02-19T23:49:37.745Z,16.50
2018-02-19T23:52:04.120Z,16.57
2018-02-19T23:54:34.489Z,16.60
2018-02-19T23:57:00.860Z,15.67
2018-02-19T23:59:27.245Z,16.50
